Time;durP1;ratioP1;P1;durP2;ratioP2;P2;SDS_P1;SDS_P2;PMS_P1;PMS_P2;Temp;Humidity;BMP_temperature;BMP_pressure;BME280_temperature;BME280_humidity;BME280_pressure;Samples;Min_cycle;Max_cycle;Signal;HPM_P1;HPM_P2
2022/03/20 00:00:00;;;;;;;17.40;11.02;;;;;;;5.31;36.07;101244.28;5026087;28;20206;-68
2022/03/20 00:05:22;;;;;;;16.60;11.65;;;;;;;5.20;34.98;101263.59;5449409;23;20257;-68
2022/03/20 00:07:54;;;;;;;17.08;11.57;;;;;;;5.18;35.20;101247.84;5006354;28;20285;-68
2022/03/20 00:10:28;;;;;;;13.50;10.63;;;;;;;4.79;34.53;101191.84;5006654;28;20049;-68
2022/03/20 00:13:02;;;;;;;16.85;10.95;;;;;;;5.11;34.50;101239.09;5006503;28;20209;-69
2022/03/20 00:15:34;;;;;;;14.23;11.18;;;;;;;5.12;34.24;101253.09;4989525;28;20042;-68
2022/03/20 00:18:07;;;;;;;16.98;11.63;;;;;;;4.78;33.99;101186.59;4989239;28;20301;-68
2022/03/20 00:20:42;;;;;;;14.23;9.60;;;;;;;5.02;33.76;101246.13;5006131;28;20038;-68
2022/03/20 00:23:16;;;;;;;12.82;8.48;;;;;;;4.99;33.70;101248.75;5006131;28;20047;-68
2022/03/20 00:25:50;;;;;;;14.57;10.57;;;;;;;5.00;34.28;101243.50;5006328;28;20042;-68
2022/03/20 00:28:24;;;;;;;17.17;11.93;;;;;;;4.96;33.76;101272.41;5006315;28;20386;-68
2022/03/20 00:30:57;;;;;;;13.98;10.13;;;;;;;4.92;34.25;101239.16;5005989;28;20043;-68
2022/03/20 00:33:30;;;;;;;11.27;9.98;;;;;;;4.82;33.51;101236.50;5006178;28;20046;-68
2022/03/20 00:36:02;;;;;;;16.20;10.50;;;;;;;4.79;33.96;101246.13;4989503;28;20120;-69
2022/03/20 00:38:34;;;;;;;15.55;10.07;;;;;;;4.78;34.27;101249.66;5006321;28;20045;-68
2022/03/20 00:41:08;;;;;;;12.23;10.07;;;;;;;4.76;34.44;101251.41;5006391;28;20312;-67
2022/03/20 00:43:41;;;;;;;13.70;10.52;;;;;;;4.73;34.46;101241.78;5006278;28;20046;-68
2022/03/20 00:46:13;;;;;;;12.27;9.70;;;;;;;4.38;34.52;101188.41;4989250;28;20049;-69
2022/03/20 00:48:46;;;;;;;16.15;9.40;;;;;;;4.66;34.53;101240.03;4990042;28;20043;-68
2022/03/20 00:51:18;;;;;;;12.65;9.38;;;;;;;4.24;34.34;101171.81;5006017;28;20042;-69
2022/03/20 00:53:50;;;;;;;14.13;8.45;;;;;;;4.62;35.44;101243.53;5006432;28;20030;-68
2022/03/20 00:56:20;;;;;;;15.75;10.95;;;;;;;4.58;34.96;101247.03;5006280;28;20055;-68
2022/03/20 00:58:48;;;;;;;13.73;9.50;;;;;;;4.60;35.65;101255.78;5006544;28;20042;-68
2022/03/20 01:01:19;;;;;;;12.43;9.07;;;;;;;4.58;35.17;101247.03;4989271;28;20042;-70
2022/03/20 01:03:49;;;;;;;13.43;9.20;;;;;;;4.50;35.53;101254.03;5006164;28;20046;-68
2022/03/20 01:06:21;;;;;;;12.93;9.52;;;;;;;3.21;35.57;101037.09;5005740;28;20058;-68
2022/03/20 01:08:50;;;;;;;13.05;10.15;;;;;;;4.44;36.26;101254.03;5005736;28;20057;-69
2022/03/20 01:11:21;;;;;;;14.55;9.18;;;;;;;4.51;36.06;101252.28;5006063;28;20042;-68
2022/03/20 01:13:49;;;;;;;11.70;9.90;;;;;;;4.51;36.31;101260.16;5005832;28;20058;-68
2022/03/20 01:16:19;;;;;;;13.07;9.02;;;;;;;4.51;36.56;101252.28;4989330;28;20042;-68
2022/03/20 01:18:50;;;;;;;15.23;10.63;;;;;;;4.49;36.63;101247.03;5005765;28;20289;-68
2022/03/20 01:21:21;;;;;;;14.40;8.95;;;;;;;4.46;36.46;101244.41;5006252;28;20278;-68
2022/03/20 01:23:50;;;;;;;12.60;9.23;;;;;;;4.42;36.79;101246.16;5005746;28;20297;-68
2022/03/20 01:26:21;;;;;;;13.35;9.93;;;;;;;4.43;36.74;101249.66;5006111;28;20293;-68
2022/03/20 01:28:50;;;;;;;13.98;9.85;;;;;;;4.43;36.49;101245.28;5005927;28;20284;-68
2022/03/20 01:31:20;;;;;;;14.27;10.15;;;;;;;4.42;36.70;101230.41;5006279;28;20308;-68
2022/03/20 01:33:50;;;;;;;12.98;9.48;;;;;;;4.31;36.50;101247.91;5005603;28;20312;-68
2022/03/20 01:36:20;;;;;;;13.73;9.75;;;;;;;4.15;36.07;101254.00;5006675;28;20305;-69
2022/03/20 01:38:50;;;;;;;14.38;10.07;;;;;;;4.09;35.83;101252.25;5005865;28;20289;-68
2022/03/20 01:41:22;;;;;;;12.95;9.88;;;;;;;4.09;36.73;101260.13;4988946;28;20193;-68
2022/03/20 01:43:52;;;;;;;13.18;8.95;;;;;;;3.73;36.70;101200.59;5009121;28;20233;-68
2022/03/20 01:46:21;;;;;;;15.02;9.70;;;;;;;3.99;36.22;101273.22;5009303;28;20174;-68
2022/03/20 01:48:51;;;;;;;14.05;10.30;;;;;;;3.91;36.49;101246.97;5008992;28;20183;-69
2022/03/20 01:52:10;;;;;;;15.75;10.02;;;;;;;3.62;36.96;101193.56;5008995;28;20042;-68
2022/03/20 01:54:15;;;;;;;13.80;10.60;;;;;;;4.00;36.66;101240.84;5008731;28;20057;-69
2022/03/20 01:56:49;;;;;;;15.25;9.98;;;;;;;4.01;36.49;101253.09;5008900;28;20209;-68
2022/03/20 01:59:21;;;;;;;15.18;10.23;;;;;;;3.91;36.94;101267.94;5008834;28;20058;-68
2022/03/20 02:01:54;;;;;;;15.60;9.10;;;;;;;2.62;36.65;101057.88;5008821;28;20049;-68
2022/03/20 02:04:27;;;;;;;16.08;10.60;;;;;;;3.95;37.00;101246.09;5008531;28;20058;-68
2022/03/20 02:07:00;;;;;;;16.15;9.77;;;;;;;3.95;36.34;101239.97;5008843;28;20050;-68
2022/03/20 02:09:33;;;;;;;12.48;9.45;;;;;;;3.66;36.23;101197.94;5008671;28;20042;-68
2022/03/20 02:12:08;;;;;;;14.75;10.63;;;;;;;3.82;35.93;101237.31;5008856;28;20050;-68
2022/03/20 02:14:41;;;;;;;13.63;9.60;;;;;;;3.71;35.63;101240.78;4991992;28;20053;-68
2022/03/20 02:17:14;;;;;;;16.05;9.45;;;;;;;3.34;35.54;101188.25;5008820;28;20053;-68
2022/03/20 02:19:47;;;;;;;14.80;10.32;;;;;;;3.60;35.53;101246.00;4991678;28;20042;-68
2022/03/20 02:22:21;;;;;;;12.30;9.38;;;;;;;3.50;36.39;101242.47;5008684;28;20183;-68
2022/03/20 02:24:54;;;;;;;13.40;10.77;;;;;;;3.62;36.36;101249.50;5008346;28;20045;-68
2022/03/20 02:27:27;;;;;;;12.95;9.50;;;;;;;3.59;36.08;101246.00;5008387;28;20043;-68
2022/03/20 02:30:02;;;;;;;14.60;10.60;;;;;;;3.49;36.07;101250.34;5008244;28;20042;-68
2022/03/20 02:32:34;;;;;;;12.93;9.43;;;;;;;3.35;35.63;101244.16;4975073;28;20046;-68
2022/03/20 02:35:11;;;;;;;15.40;9.75;;;;;;;3.14;35.67;101250.19;4991153;28;20046;-68
2022/03/20 02:37:47;;;;;;;13.63;9.60;;;;;;;2.64;36.13;101201.00;5008125;28;20042;-67
2022/03/20 02:40:22;;;;;;;15.93;11.15;;;;;;;2.64;36.48;101194.91;5008492;28;20081;-68
2022/03/20 02:42:54;;;;;;;;;;;;;;;2.80;36.00;101264.81;4991957;28;20042;-67
2022/03/20 02:45:30;;;;;;;13.50;10.45;;;;;;;2.79;36.30;101268.31;5008271;28;19928;-68
2022/03/20 02:48:05;;;;;;;13.27;10.15;;;;;;;2.88;36.85;101252.66;5007913;28;20046;-68
2022/03/20 02:50:38;;;;;;;13.20;10.20;;;;;;;2.86;36.62;101280.56;5007936;28;20042;-67
2022/03/20 02:53:13;;;;;;;14.50;10.35;;;;;;;2.80;36.43;101247.38;5007264;28;20288;-68
2022/03/20 02:55:46;;;;;;;15.80;9.70;;;;;;;2.44;36.59;101168.59;5007737;28;20046;-68
2022/03/20 02:58:18;;;;;;;13.98;10.85;;;;;;;2.85;36.12;101250.88;5008161;28;20058;-68
2022/03/20 03:00:52;;;;;;;14.00;9.45;;;;;;;2.76;36.43;101252.56;4990716;28;20301;-68
2022/03/20 03:03:24;;;;;;;15.40;10.68;;;;;;;2.48;36.82;101188.69;4991091;28;20053;-68
2022/03/20 03:05:58;;;;;;;12.30;9.77;;;;;;;1.63;36.51;101067.72;5007501;28;20321;-68
2022/03/20 03:11:22;;;;;;;15.07;10.00;;;;;;;2.90;36.67;101252.66;5007648;28;20048;-68
2022/03/20 03:13:52;;;;;;;15.98;9.30;;;;;;;2.81;36.35;101256.09;5007293;28;20034;-67
2022/03/20 03:16:22;;;;;;;16.08;10.20;;;;;;;2.74;36.33;101265.66;5007459;28;20042;-67
2022/03/20 03:18:52;;;;;;;17.33;10.25;;;;;;;2.75;36.70;101262.16;5007199;28;20234;-68
2022/03/20 03:21:23;;;;;;;18.38;9.75;;;;;;;2.69;36.43;101269.09;4990435;28;20306;-68
2022/03/20 03:23:55;;;;;;;12.93;8.85;;;;;;;2.75;36.68;101262.16;5007099;28;20283;-67
2022/03/20 03:26:23;;;;;;;15.57;10.20;;;;;;;2.71;36.55;101267.38;5007256;28;20054;-68
2022/03/20 03:28:53;;;;;;;14.05;10.07;;;;;;;2.24;36.70;101210.31;5007030;28;20317;-68
2022/03/20 03:31:23;;;;;;;14.23;10.73;;;;;;;2.52;36.93;101267.25;5007007;28;20190;-67
2022/03/20 03:36:43;;;;;;;13.05;10.48;;;;;;;2.39;36.95;101269.75;5006956;28;20084;-67
2022/03/20 03:39:19;;;;;;;14.07;9.93;;;;;;;2.42;36.97;101273.25;5006998;28;20237;-67
2022/03/20 03:41:51;;;;;;;13.35;9.48;;;;;;;2.45;37.05;101267.19;5007174;28;20046;-67
2022/03/20 03:44:25;;;;;;;14.35;10.18;;;;;;;2.37;36.92;101274.97;5006699;28;20183;-67
2022/03/20 03:46:57;;;;;;;12.30;9.25;;;;;;;2.30;36.70;101281.00;5006938;28;20100;-67
2022/03/20 03:49:29;;;;;;;14.63;11.10;;;;;;;2.25;37.15;101268.75;5006752;28;20209;-67
2022/03/20 03:52:02;;;;;;;13.20;10.20;;;;;;;2.16;36.98;101269.53;5006924;28;20240;-67
2022/03/20 03:54:35;;;;;;;13.48;9.65;;;;;;;2.13;36.83;101274.75;5006600;28;20046;-68
2022/03/20 03:57:08;;;;;;;13.57;9.60;;;;;;;2.11;37.01;101272.09;5006556;28;20233;-67
2022/03/20 03:59:40;;;;;;;14.13;10.40;;;;;;;2.05;36.90;101272.06;5006767;28;20088;-68
2022/03/20 04:02:12;;;;;;;15.20;9.85;;;;;;;2.04;36.71;101277.25;5006463;28;20050;-67
2022/03/20 04:04:45;;;;;;;14.07;9.43;;;;;;;2.01;36.89;101270.25;5005990;28;20100;-68
2022/03/20 04:07:20;;;;;;;11.60;8.30;;;;;;;2.05;36.92;101269.44;5006666;28;20092;-67
2022/03/20 04:09:54;;;;;;;;;;;;;;;2.03;36.79;101265.06;4990219;28;20062;-67
2022/03/20 04:12:26;;;;;;;13.38;9.88;;;;;;;1.60;36.76;101209.72;5006335;28;19922;-67
2022/03/20 04:15:02;;;;;;;14.07;10.20;;;;;;;1.94;36.77;101284.13;5006442;28;20062;-67
2022/03/20 04:17:34;;;;;;;12.77;9.10;;;;;;;1.92;36.38;101267.56;5006207;28;20046;-67
2022/03/20 04:20:08;;;;;;;15.38;10.40;;;;;;;0.56;36.64;101087.44;5006184;28;20046;-67
2022/03/20 04:23:42;;;;;;;14.52;9.55;;;;;;;1.97;36.99;101281.56;5006206;28;20206;-67
2022/03/20 04:25:39;;;;;;;11.63;8.48;;;;;;;1.97;36.99;101272.84;4989019;28;20233;-68
2022/03/20 04:28:11;;;;;;;13.00;9.00;;;;;;;1.99;37.04;101287.69;4989176;28;20042;-67
2022/03/20 04:30:44;;;;;;;15.25;8.93;;;;;;;1.91;37.25;101271.03;5006384;28;20109;-67
2022/03/20 04:33:16;;;;;;;12.25;9.35;;;;;;;1.67;37.43;101221.97;5006333;28;20245;-67
2022/03/20 04:35:48;;;;;;;16.05;10.27;;;;;;;1.99;37.49;101271.09;5005988;28;20039;-67
2022/03/20 04:38:21;;;;;;;13.00;8.70;;;;;;;1.92;37.53;101272.78;5006016;28;20065;-67
2022/03/20 04:40:55;;;;;;;13.02;9.68;;;;;;;1.84;37.71;101277.06;5006265;28;20089;-67
2022/03/20 04:43:27;;;;;;;16.48;9.23;;;;;;;1.78;37.79;101275.25;5006237;28;20201;-67
2022/03/20 04:45:59;;;;;;;13.38;9.25;;;;;;;1.53;37.75;101229.63;5006237;28;20097;-67
2022/03/20 04:59:53;;;;;;;12.82;8.80;;;;;;;1.51;37.82;101236.56;5005833;28;20096;-67
2022/03/20 05:02:25;;;;;;;15.68;9.52;;;;;;;1.86;37.67;101304.09;5005797;28;20353;-67
2022/03/20 05:04:57;;;;;;;14.38;10.18;;;;;;;1.79;38.08;101297.91;5005367;28;20051;-67
2022/03/20 05:07:30;;;;;;;13.88;10.02;;;;;;;1.87;37.72;101303.25;5005773;28;20089;-67
2022/03/20 05:15:42;;;;;;;11.40;8.77;;;;;;;1.55;37.56;101238.38;5005866;28;20093;-67
2022/03/20 05:18:14;;;;;;;12.02;8.70;;;;;;;1.86;37.38;101307.59;5008664;28;20356;-67
2022/03/20 05:20:47;;;;;;;12.48;9.80;;;;;;;1.82;37.54;101310.16;5009477;28;20245;-67
2022/03/20 05:23:19;;;;;;;13.38;9.57;;;;;;;1.81;37.75;101311.88;5009667;28;20244;-67
2022/03/20 05:25:51;;;;;;;13.75;9.85;;;;;;;1.90;37.97;101318.97;5009626;28;20110;-67
2022/03/20 05:28:24;;;;;;;12.63;9.43;;;;;;;1.67;37.65;101263.81;5009578;28;20039;-67
2022/03/20 05:30:57;;;;;;;10.68;8.32;;;;;;;1.62;37.82;101256.75;5009322;28;20089;-67
2022/03/20 05:33:31;;;;;;;11.45;8.60;;;;;;;1.95;37.88;101321.63;5009182;28;20101;-67
2022/03/20 05:36:04;;;;;;;12.48;9.43;;;;;;;2.09;37.61;101325.28;4993234;28;20302;-68
2022/03/20 05:38:37;;;;;;;15.52;9.15;;;;;;;2.09;37.35;101320.03;5009182;28;20289;-67
2022/03/20 05:44:00;;;;;;;11.63;8.40;;;;;;;1.99;37.07;101332.13;5009095;28;20046;-67
2022/03/20 05:46:29;;;;;;;13.13;8.68;;;;;;;1.92;37.63;101334.66;5009264;28;20373;-67
2022/03/20 05:48:59;;;;;;;11.73;8.73;;;;;;;1.93;36.81;101344.25;5009228;28;20058;-67
2022/03/20 05:51:30;;;;;;;12.30;8.98;;;;;;;1.88;37.17;101338.97;4991929;28;20101;-67
2022/03/20 05:54:00;;;;;;;14.38;9.75;;;;;;;1.82;37.15;101341.53;5009174;28;20097;-67
2022/03/20 05:59:21;;;;;;;12.23;8.82;;;;;;;1.90;37.35;101339.88;4991805;28;20042;-67
2022/03/20 06:01:53;;;;;;;10.55;9.00;;;;;;;1.96;37.07;101350.41;5008977;28;20039;-67
2022/03/20 06:04:25;;;;;;;13.38;8.93;;;;;;;2.11;36.87;101352.31;4988226;28;20062;-67
2022/03/20 06:06:58;;;;;;;11.07;8.13;;;;;;;2.18;36.46;101356.75;4989198;28;20074;-67
2022/03/20 06:09:30;;;;;;;14.00;9.48;;;;;;;1.20;36.47;101188.31;4989409;28;20042;-67
2022/03/20 06:12:02;;;;;;;13.13;9.40;;;;;;;2.24;36.09;101369.91;4989364;28;20046;-67
2022/03/20 06:14:36;;;;;;;13.50;10.18;;;;;;;2.04;35.87;101316.50;4989095;28;20085;-68
2022/03/20 06:17:09;;;;;;;13.50;8.73;;;;;;;2.49;36.29;101371.03;4988914;28;20050;-67
2022/03/20 06:19:44;;;;;;;14.13;9.38;;;;;;;2.73;36.24;101373.00;4989182;28;20043;-67
2022/03/20 06:22:16;;;;;;;11.60;9.18;;;;;;;2.85;35.33;101388.81;4989160;28;20042;-67
2022/03/20 06:24:48;;;;;;;10.65;8.75;;;;;;;2.86;35.22;101391.44;4988818;28;20046;-67
2022/03/20 06:27:21;;;;;;;11.35;8.45;;;;;;;2.95;35.39;101387.16;4988927;28;20047;-67
2022/03/20 06:29:55;;;;;;;11.15;7.90;;;;;;;3.02;35.36;101378.47;4988733;28;20043;-67
2022/03/20 06:32:28;;;;;;;12.45;8.70;;;;;;;3.13;35.32;101384.66;4989046;28;20124;-67
2022/03/20 06:35:01;;;;;;;12.98;9.32;;;;;;;3.22;35.05;101381.25;4988684;28;20053;-67
2022/03/20 06:37:36;;;;;;;11.10;8.27;;;;;;;3.20;35.64;101355.91;4988545;28;20246;-67
2022/03/20 06:40:09;;;;;;;12.68;8.88;;;;;;;3.74;35.00;101391.16;4988857;28;20042;-67
2022/03/20 06:42:42;;;;;;;13.90;7.65;;;;;;;3.03;35.41;101260.59;4988729;28;20053;-67
2022/03/20 06:45:18;;;;;;;13.85;8.52;;;;;;;4.17;34.79;101397.47;4987691;28;20043;-67
2022/03/20 06:47:50;;;;;;;12.57;9.75;;;;;;;3.91;34.06;101336.16;4988345;28;20262;-67
2022/03/20 06:50:22;;;;;;;17.08;11.98;;;;;;;4.34;34.70;101404.56;4988565;28;20046;-67
2022/03/20 06:53:00;;;;;;;16.30;9.15;;;;;;;4.08;35.11;101351.94;4988369;28;20089;-67
2022/03/20 06:55:33;;;;;;;11.00;7.63;;;;;;;4.50;34.76;101408.97;4988634;28;20085;-67
2022/03/20 06:58:05;;;;;;;9.93;8.02;;;;;;;4.60;34.29;101407.25;4988161;28;20246;-67
2022/03/20 07:00:39;;;;;;;12.60;8.40;;;;;;;4.68;34.65;101405.50;4988167;28;20302;-67
2022/03/20 07:03:11;;;;;;;13.13;9.47;;;;;;;4.78;34.35;101417.78;4988234;28;20047;-67
2022/03/20 07:05:44;;;;;;;11.00;8.85;;;;;;;4.92;34.07;101417.81;5001970;28;20058;-67
2022/03/20 07:08:16;;;;;;;13.20;9.43;;;;;;;5.01;33.56;101425.69;5007737;28;20286;-67
2022/03/20 07:10:48;;;;;;;11.80;9.15;;;;;;;4.95;32.87;101430.94;5007511;28;20046;-67
2022/03/20 07:16:14;;;;;;;15.50;9.85;;;;;;;4.11;32.32;101309.97;4990616;28;20316;-67
2022/03/20 07:18:47;;;;;;;13.38;8.70;;;;;;;4.00;33.02;101315.19;4991021;28;20206;-67
2022/03/20 07:21:20;;;;;;;12.13;8.30;;;;;;;4.84;33.32;101425.66;5007177;28;20038;-67
2022/03/20 07:23:54;;;;;;;12.50;9.48;;;;;;;4.78;32.42;101387.13;5007293;28;20084;-67
2022/03/20 07:29:30;;;;;;;10.85;8.65;;;;;;;5.01;32.48;101423.06;5007000;28;20089;-67
2022/03/20 07:32:06;;;;;;;13.25;9.43;;;;;;;5.10;32.80;101421.31;5006930;28;20085;-67
2022/03/20 07:34:39;;;;;;;12.50;9.38;;;;;;;4.99;32.68;101409.06;5007267;28;20042;-67
2022/03/20 07:37:16;;;;;;;13.32;9.32;;;;;;;4.73;32.30;101362.59;5006881;28;20225;-67
2022/03/20 07:39:49;;;;;;;10.85;8.20;;;;;;;4.91;32.84;101410.81;5006658;28;20046;-67
2022/03/20 07:42:23;;;;;;;11.68;9.45;;;;;;;5.00;32.26;101416.06;5007100;28;20294;-67
2022/03/20 07:44:56;;;;;;;13.15;10.02;;;;;;;4.76;32.63;101361.72;5007142;28;20293;-67
2022/03/20 07:47:29;;;;;;;12.73;9.95;;;;;;;5.12;32.44;101403.81;4990027;28;20344;-67
2022/03/20 07:50:02;;;;;;;13.40;9.38;;;;;;;5.32;32.43;101402.91;5006722;28;20050;-67
2022/03/20 07:52:35;;;;;;;11.48;8.65;;;;;;;5.24;32.63;101349.47;5006653;28;20046;-67
2022/03/20 07:55:08;;;;;;;13.40;8.05;;;;;;;5.78;32.51;101398.44;5006862;28;20042;-67
2022/03/20 07:57:42;;;;;;;17.40;9.63;;;;;;;5.96;31.80;101402.75;5006469;28;20042;-67
2022/03/20 08:00:16;;;;;;;15.45;9.18;;;;;;;5.70;31.44;101337.94;5006567;28;20042;-67
2022/03/20 08:02:51;;;;;;;13.75;9.85;;;;;;;6.31;31.11;101392.06;5006509;28;20198;-67
2022/03/20 08:05:25;;;;;;;10.13;7.90;;;;;;;6.16;31.27;101395.63;4986062;28;20059;-67
2022/03/20 08:07:58;;;;;;;12.00;9.35;;;;;;;5.98;31.06;101404.50;4987064;28;20047;-68
2022/03/20 08:10:31;;;;;;;13.77;8.85;;;;;;;5.75;31.38;101398.44;4987122;28;20039;-67
2022/03/20 08:13:04;;;;;;;16.23;10.30;;;;;;;5.59;32.16;101399.34;4986775;28;20093;-68
2022/03/20 08:15:37;;;;;;;13.98;9.93;;;;;;;5.71;32.36;101391.44;4987190;28;20062;-67
2022/03/20 08:18:10;;;;;;;13.05;9.70;;;;;;;5.86;31.56;101404.53;4986827;28;20258;-66
2022/03/20 08:20:43;;;;;;;19.90;9.27;;;;;;;5.95;31.75;101398.38;4987022;28;20114;-67
2022/03/20 08:23:15;;;;;;;13.10;9.00;;;;;;;6.06;31.91;101410.59;4986904;28;20089;-67
2022/03/20 08:25:48;;;;;;;14.05;9.52;;;;;;;6.35;31.57;101404.31;4986723;28;20298;-67
2022/03/20 08:28:20;;;;;;;14.80;9.52;;;;;;;6.51;31.26;101397.19;4987006;28;20093;-68
2022/03/20 08:30:52;;;;;;;12.55;8.23;;;;;;;6.70;31.35;101398.84;4986994;28;20038;-67
2022/03/20 08:33:27;;;;;;;12.10;9.98;;;;;;;6.86;30.73;101399.63;4986930;28;20179;-67
2022/03/20 08:35:59;;;;;;;13.85;9.27;;;;;;;6.79;30.38;101414.59;4986839;28;20080;-67
2022/03/20 08:38:31;;;;;;;14.00;9.55;;;;;;;6.57;31.31;101400.69;4986315;28;20063;-67
2022/03/20 08:41:03;;;;;;;15.30;11.38;;;;;;;6.34;31.09;101410.47;4986683;28;20043;-68
2022/03/20 08:43:35;;;;;;;13.95;10.25;;;;;;;6.56;31.57;101392.78;4986569;28;20046;-68
2022/03/20 08:46:08;;;;;;;13.85;10.52;;;;;;;6.57;31.13;101400.69;4986681;28;20043;-68
2022/03/20 08:48:41;;;;;;;12.05;9.18;;;;;;;6.50;32.00;101337.50;4986787;28;20090;-67
2022/03/20 08:51:13;;;;;;;24.40;9.77;;;;;;;7.07;31.60;101383.63;4986640;28;20046;-67
2022/03/20 08:53:45;;;;;;;13.23;10.20;;;;;;;7.17;31.23;101389.72;4990698;28;20309;-67
2022/03/20 08:56:18;;;;;;;14.57;10.73;;;;;;;7.52;30.72;101379.72;4990603;28;20047;-68
2022/03/20 08:58:51;;;;;;;11.88;9.73;;;;;;;7.60;30.22;101380.50;4990504;28;20047;-68
2022/03/20 09:01:23;;;;;;;11.77;9.50;;;;;;;7.50;30.51;101384.13;4990302;28;20042;-67
2022/03/20 09:03:57;;;;;;;13.48;10.25;;;;;;;7.53;30.97;101376.19;4990312;28;20042;-67
2022/03/20 09:06:29;;;;;;;16.83;10.23;;;;;;;7.65;30.72;101375.19;5009672;28;20092;-68
2022/03/20 09:09:01;;;;;;;12.93;10.60;;;;;;;7.55;30.77;101370.91;5009917;28;20104;-68
2022/03/20 09:11:33;;;;;;;14.88;10.18;;;;;;;7.41;31.03;101383.34;4992671;28;20046;-67
2022/03/20 09:14:06;;;;;;;14.23;10.43;;;;;;;7.25;30.88;101324.56;4992871;28;20047;-67
2022/03/20 09:19:28;;;;;;;15.70;9.98;;;;;;;7.51;30.47;101377.97;5009697;28;20042;-67
2022/03/20 09:21:56;;;;;;;16.10;10.63;;;;;;;7.77;30.93;101376.81;5009465;28;20081;-67
2022/03/20 09:24:27;;;;;;;15.98;10.30;;;;;;;7.96;30.90;101370.41;5009242;28;20046;-67
2022/03/20 09:26:57;;;;;;;16.63;11.02;;;;;;;7.46;30.22;101326.16;5009350;28;20231;-68
2022/03/20 09:29:27;;;;;;;12.43;9.77;;;;;;;7.69;30.54;101382.19;5009435;28;20038;-68
2022/03/20 09:31:57;;;;;;;11.68;9.50;;;;;;;7.70;30.01;101379.53;5009128;28;20053;-68
2022/03/20 09:34:32;;;;;;;13.40;9.85;;;;;;;7.88;30.59;101378.44;5009443;28;20282;-68
2022/03/20 09:37:05;;;;;;;17.33;10.63;;;;;;;8.09;30.64;101385.22;5009407;28;20062;-68
2022/03/20 09:39:37;;;;;;;13.15;10.27;;;;;;;7.98;30.05;101374.78;5008932;28;20042;-68
2022/03/20 09:42:09;;;;;;;14.38;10.05;;;;;;;7.97;29.94;101370.41;5009103;28;20101;-68
2022/03/20 09:44:41;;;;;;;14.30;10.15;;;;;;;6.84;30.08;101203.72;4992318;28;20065;-68
2022/03/20 09:47:17;;;;;;;13.95;10.70;;;;;;;8.01;29.75;101376.50;5009210;28;20065;-68
2022/03/20 09:49:52;;;;;;;11.98;10.00;;;;;;;7.96;29.71;101387.13;4975897;28;20057;-68
2022/03/20 09:52:25;;;;;;;11.52;8.88;;;;;;;7.66;30.07;101380.44;5009055;28;20038;-68
2022/03/20 09:54:59;;;;;;;15.63;10.80;;;;;;;7.50;29.87;101396.47;4992290;28;20042;-69
2022/03/20 09:57:32;;;;;;;12.40;10.05;;;;;;;7.63;30.32;101408.63;4991803;28;20234;-68
2022/03/20 10:00:11;;;;;;;13.90;11.10;;;;;;;7.51;30.21;101377.09;5008625;28;20085;-68
2022/03/20 10:02:43;;;;;;;13.70;10.15;;;;;;;7.36;30.11;101404.50;5008373;28;20042;-68
2022/03/20 10:05:22;;;;;;;19.92;11.02;;;;;;;6.23;30.58;101255.16;5008580;28;20124;-68
2022/03/20 10:08:09;;;;;;;14.57;10.70;;;;;;;7.19;30.60;101390.56;5008531;28;20046;-68
2022/03/20 10:10:42;;;;;;;15.00;9.90;;;;;;;7.18;31.21;101392.34;5008586;28;20085;-68
2022/03/20 10:13:14;;;;;;;13.45;10.10;;;;;;;6.95;31.29;101342.44;5008482;28;20046;-68
2022/03/20 10:15:47;;;;;;;14.95;10.70;;;;;;;7.20;30.88;101384.41;5008361;28;20042;-68
2022/03/20 10:18:22;;;;;;;15.93;10.77;;;;;;;6.59;30.92;101268.94;5008593;28;20054;-68
2022/03/20 10:20:59;;;;;;;14.45;10.98;;;;;;;7.25;31.06;101386.13;5008468;28;20038;-68
2022/03/20 10:23:33;;;;;;;12.48;9.15;;;;;;;6.98;30.96;101352.09;5008487;28;20042;-68
2022/03/20 10:26:07;;;;;;;12.48;9.68;;;;;;;6.97;30.96;101381.97;5008289;28;20088;-68
2022/03/20 10:28:41;;;;;;;13.73;9.35;;;;;;;7.10;31.58;101380.97;5008243;28;20182;-68
2022/03/20 10:31:17;;;;;;;16.85;10.40;;;;;;;7.26;31.11;101382.59;5008179;28;20313;-68
2022/03/20 10:34:01;;;;;;;14.82;10.10;;;;;;;7.37;30.58;101385.16;5008333;28;20101;-68
2022/03/20 10:36:35;;;;;;;14.13;10.80;;;;;;;7.60;30.53;101393.72;5008475;28;20089;-68
2022/03/20 10:39:11;;;;;;;12.40;9.13;;;;;;;7.56;30.80;101388.47;5008323;28;20042;-68
2022/03/20 10:41:45;;;;;;;14.70;10.98;;;;;;;7.03;30.81;101293.16;5007983;28;20054;-68
2022/03/20 10:44:19;;;;;;;15.88;11.40;;;;;;;7.54;30.15;101391.13;4991030;28;20038;-68
2022/03/20 10:46:57;;;;;;;12.95;9.68;;;;;;;7.57;30.37;101383.19;5008237;28;20043;-68
2022/03/20 10:49:29;;;;;;;15.40;10.30;;;;;;;7.45;30.63;101388.59;5007870;28;20046;-68
2022/03/20 10:52:05;;;;;;;12.10;10.02;;;;;;;7.40;30.42;101392.16;5007909;28;20114;-68
2022/03/20 10:54:43;;;;;;;12.48;10.15;;;;;;;7.43;30.43;101392.13;5007792;28;20101;-68
2022/03/20 10:57:15;;;;;;;12.30;10.00;;;;;;;7.64;30.54;101378.72;5007647;28;20317;-68
2022/03/20 10:59:59;;;;;;;11.18;8.80;;;;;;;7.73;30.10;101375.09;5007537;28;20069;-68
2022/03/20 11:02:31;;;;;;;16.98;11.02;;;;;;;7.49;30.14;101324.34;5007663;28;20081;-68
2022/03/20 11:05:04;;;;;;;12.25;10.00;;;;;;;7.83;30.20;101382.88;5007428;28;20062;-68
2022/03/20 11:07:38;;;;;;;14.02;10.38;;;;;;;7.23;30.38;101319.31;5007485;28;20187;-68
2022/03/20 11:10:12;;;;;;;13.32;9.98;;;;;;;7.52;30.74;101369.16;5007617;28;20050;-68
2022/03/20 11:12:47;;;;;;;10.90;9.32;;;;;;;7.68;30.27;101365.47;5007612;28;20061;-68
2022/03/20 11:15:20;;;;;;;16.75;11.25;;;;;;;7.79;30.33;101367.97;5006407;28;20080;-68
2022/03/20 11:17:53;;;;;;;12.75;9.43;;;;;;;7.76;30.42;101362.75;5007331;28;20186;-68
2022/03/20 11:20:29;;;;;;;14.35;9.48;;;;;;;7.72;30.59;101350.47;5007300;28;20260;-67
2022/03/20 11:23:05;;;;;;;15.60;10.38;;;;;;;7.87;30.32;101355.56;5007230;28;20050;-67
2022/03/20 11:25:39;;;;;;;13.95;9.93;;;;;;;7.86;30.33;101355.59;5007492;28;20293;-68
2022/03/20 11:28:13;;;;;;;12.50;10.35;;;;;;;7.86;30.37;101348.53;5007439;28;20205;-68
2022/03/20 11:30:46;;;;;;;13.85;9.45;;;;;;;7.78;30.31;101349.53;5007672;28;20217;-68
2022/03/20 11:33:21;;;;;;;14.10;11.45;;;;;;;7.91;30.41;101344.06;4989946;28;20074;-68
2022/03/20 11:35:54;;;;;;;;;;;;;;;7.93;30.13;101351.97;5007811;28;20197;-68
2022/03/20 11:38:27;;;;;;;16.35;10.80;;;;;;;8.02;30.44;101359.78;5006810;28;20215;-68
2022/03/20 11:41:08;;;;;;;12.98;10.35;;;;;;;7.90;29.86;101305.34;5007156;28;20286;-68
2022/03/20 11:43:43;;;;;;;11.93;9.13;;;;;;;8.23;29.84;101342.75;5007110;28;20294;-68
2022/03/20 11:46:25;;;;;;;11.25;8.98;;;;;;;8.32;29.83;101335.59;5006946;28;20113;-72
2022/03/20 11:49:23;;;;;;;13.55;10.30;;;;;;;8.33;29.36;101329.41;4990000;28;20046;-73
2022/03/20 11:52:03;;;;;;;15.43;10.18;;;;;;;8.39;29.73;101331.09;5006634;28;20042;-73
2022/03/20 11:54:51;;;;;;;12.23;9.07;;;;;;;8.52;29.51;101318.56;5006588;28;20058;-73
2022/03/20 11:57:42;;;;;;;10.75;9.65;;;;;;;8.61;29.35;101316.63;4989460;28;20042;-73
2022/03/20 12:00:18;;;;;;;14.63;11.07;;;;;;;8.79;29.48;101298.72;5006688;28;20042;-72
2022/03/20 12:02:59;;;;;;;12.50;8.55;;;;;;;9.01;29.39;101300.09;5006519;28;20084;-73
2022/03/20 12:06:03;;;;;;;19.42;9.15;;;;;;;8.82;28.49;101254.59;4989405;28;20054;-73
2022/03/20 12:08:53;;;;;;;11.77;9.20;;;;;;;8.98;28.37;101244.63;5006158;28;20096;-73
2022/03/20 12:11:36;;;;;;;13.38;8.57;;;;;;;9.39;28.39;101287.97;5006304;28;20042;-73
2022/03/20 12:14:25;;;;;;;10.50;9.15;;;;;;;9.33;27.94;101283.66;5006562;28;20065;-73
2022/03/20 12:16:59;;;;;;;12.60;9.68;;;;;;;9.37;28.37;101273.88;5006196;28;20063;-73
2022/03/20 12:19:39;;;;;;;11.75;9.20;;;;;;;9.71;27.73;101282.91;5006143;28;20109;-72
2022/03/20 12:22:14;;;;;;;9.80;8.35;;;;;;;9.81;28.08;101275.66;4989640;28;20042;-73
2022/03/20 12:24:58;;;;;;;11.05;9.13;;;;;;;9.58;27.64;101213.47;5006240;28;20063;-73
2022/03/20 12:27:48;;;;;;;15.90;9.63;;;;;;;9.26;27.34;101165.63;5006404;28;20156;-73
2022/03/20 12:30:38;;;;;;;9.05;7.18;;;;;;;9.76;27.26;101296.06;5006026;28;20356;-72
2022/03/20 12:33:25;;;;;;;12.07;9.45;;;;;;;9.74;27.35;101277.56;5005890;28;20046;-73